createdAt,value
2019-01-27T00:01:37.145Z,66.48
2019-01-27T00:04:08.405Z,66.42
2019-01-27T00:06:39.658Z,66.37
2019-01-27T00:09:12.378Z,66.39
2019-01-27T00:11:44.864Z,66.41
2019-01-27T00:14:16.096Z,66.39
2019-01-27T00:16:47.449Z,66.41
2019-01-27T00:19:18.667Z,66.39
2019-01-27T00:21:49.979Z,66.38
2019-01-27T00:24:21.286Z,66.38
2019-01-27T00:26:52.556Z,66.38
2019-01-27T00:29:23.747Z,66.40
2019-01-27T00:31:54.846Z,66.41
2019-01-27T00:34:26.123Z,66.45
2019-01-27T00:36:57.373Z,66.48
2019-01-27T00:39:28.611Z,66.51
2019-01-27T00:41:59.773Z,66.57
2019-01-27T00:44:31.004Z,66.64
2019-01-27T00:47:02.323Z,66.64
2019-01-27T00:49:33.495Z,66.66
2019-01-27T00:52:04.792Z,66.65
2019-01-27T00:54:36.038Z,66.64
2019-01-27T00:57:07.667Z,66.61
2019-01-27T00:59:38.932Z,66.64
2019-01-27T01:02:11.246Z,66.66
2019-01-27T01:04:42.427Z,66.61
2019-01-27T01:07:13.776Z,66.61
2019-01-27T01:09:45.187Z,66.57
2019-01-27T01:12:16.360Z,66.54
2019-01-27T01:14:47.524Z,66.53
2019-01-27T01:17:18.765Z,66.47
2019-01-27T01:19:50.026Z,66.42
2019-01-27T01:22:21.383Z,66.44
2019-01-27T01:24:52.659Z,66.39
2019-01-27T01:27:23.932Z,66.33
2019-01-27T01:29:55.281Z,66.33
2019-01-27T01:32:26.571Z,66.28
2019-01-27T01:34:57.887Z,66.21
2019-01-27T01:37:29.223Z,66.17
2019-01-27T01:40:00.483Z,66.14
2019-01-27T01:42:31.619Z,66.11
2019-01-27T01:45:02.795Z,66.10
2019-01-27T01:47:33.984Z,66.06
2019-01-27T01:50:06.229Z,66.06
2019-01-27T01:52:37.634Z,66.06
2019-01-27T01:55:09.912Z,66.04
2019-01-27T01:57:41.100Z,66.02
2019-01-27T02:00:20.215Z,66.00
2019-01-27T02:02:51.379Z,65.99
2019-01-27T02:05:22.761Z,65.98
2019-01-27T02:07:54.008Z,65.98
2019-01-27T02:10:25.375Z,65.95
2019-01-27T02:12:56.524Z,65.99
2019-01-27T02:16:08.076Z,66.05
2019-01-27T02:18:40.387Z,66.04
2019-01-27T02:21:11.712Z,66.12
2019-01-27T02:23:42.928Z,66.17
2019-01-27T02:26:14.107Z,66.25
2019-01-27T02:28:45.265Z,66.27
2019-01-27T02:31:16.543Z,66.31
2019-01-27T02:33:47.814Z,66.28
2019-01-27T02:36:19.012Z,66.28
2019-01-27T02:38:50.226Z,66.30
2019-01-27T02:41:21.615Z,66.31
2019-01-27T02:43:52.845Z,66.31
2019-01-27T02:46:24.044Z,66.31
2019-01-27T02:48:55.299Z,66.29
2019-01-27T02:51:26.495Z,66.33
2019-01-27T02:53:57.741Z,66.34
2019-01-27T02:56:29.022Z,66.32
2019-01-27T02:59:00.279Z,66.45
2019-01-27T03:01:31.491Z,66.39
2019-01-27T03:04:02.733Z,66.43
2019-01-27T03:06:50.029Z,66.39
2019-01-27T03:09:25.657Z,66.45
2019-01-27T03:11:56.844Z,66.44
2019-01-27T03:14:28.000Z,66.44
2019-01-27T03:16:59.184Z,66.41
2019-01-27T03:19:30.486Z,66.44
2019-01-27T03:22:01.702Z,66.39
2019-01-27T03:24:35.167Z,66.37
2019-01-27T03:27:06.416Z,66.36
2019-01-27T03:29:37.558Z,66.36
2019-01-27T03:32:08.963Z,66.31
2019-01-27T03:34:40.239Z,66.34
2019-01-27T03:37:11.470Z,66.33
2019-01-27T03:39:42.642Z,66.32
2019-01-27T03:42:13.966Z,66.32
2019-01-27T03:44:45.161Z,66.29
2019-01-27T03:47:16.352Z,66.27
2019-01-27T03:49:47.521Z,66.22
2019-01-27T03:52:19.158Z,66.18
2019-01-27T03:54:50.324Z,66.18
2019-01-27T03:57:23.619Z,66.16
2019-01-27T03:59:54.810Z,66.17
2019-01-27T04:02:26.116Z,66.17
2019-01-27T04:04:57.290Z,66.15
2019-01-27T04:07:28.597Z,66.11
2019-01-27T04:09:59.758Z,66.06
2019-01-27T04:12:31.019Z,66.06
2019-01-27T04:15:02.224Z,66.04
2019-01-27T04:17:33.486Z,65.99
2019-01-27T04:20:05.582Z,65.94
2019-01-27T04:22:36.710Z,65.89
2019-01-27T04:25:07.956Z,65.87
2019-01-27T04:27:39.076Z,65.84
2019-01-27T04:30:17.238Z,65.85
2019-01-27T04:32:48.464Z,65.87
2019-01-27T04:35:19.676Z,65.88
2019-01-27T04:37:50.857Z,65.91
2019-01-27T04:40:22.379Z,65.90
2019-01-27T04:42:53.619Z,65.89
2019-01-27T04:45:31.470Z,65.87
2019-01-27T04:48:02.619Z,65.87
2019-01-27T04:50:33.897Z,65.87
2019-01-27T04:53:05.532Z,65.87
2019-01-27T04:55:37.632Z,65.83
2019-01-27T04:58:08.835Z,65.83
2019-01-27T05:00:40.276Z,65.82
2019-01-27T05:03:33.517Z,65.82
2019-01-27T05:06:04.799Z,65.82
2019-01-27T05:08:36.188Z,65.83
2019-01-27T05:11:07.539Z,65.78
2019-01-27T05:13:38.865Z,65.81
2019-01-27T05:16:10.145Z,65.81
2019-01-27T05:18:42.356Z,65.81
2019-01-27T05:21:13.563Z,65.79
2019-01-27T05:23:44.727Z,65.78
2019-01-27T05:26:15.948Z,65.76
2019-01-27T05:28:47.115Z,65.75
2019-01-27T05:31:18.350Z,65.75
2019-01-27T05:33:49.728Z,65.75
2019-01-27T05:36:21.262Z,65.72
2019-01-27T05:38:52.705Z,65.71
2019-01-27T05:41:23.889Z,65.69
2019-01-27T05:43:55.184Z,65.67
2019-01-27T05:46:26.381Z,65.68
2019-01-27T05:48:57.575Z,65.65
2019-01-27T05:51:28.814Z,65.63
2019-01-27T05:53:59.987Z,65.65
2019-01-27T05:56:31.210Z,65.64
2019-01-27T05:59:02.504Z,65.66
2019-01-27T06:01:33.716Z,65.62
2019-01-27T06:04:05.476Z,65.59
2019-01-27T06:06:36.831Z,65.61
2019-01-27T06:09:09.255Z,65.59
2019-01-27T06:11:40.764Z,65.58
2019-01-27T06:14:12.056Z,65.57
2019-01-27T06:16:43.241Z,65.50
2019-01-27T06:19:14.497Z,65.55
2019-01-27T06:21:45.656Z,65.59
2019-01-27T06:24:16.907Z,65.58
2019-01-27T06:26:48.136Z,65.62
2019-01-27T06:29:19.280Z,65.64
2019-01-27T06:31:50.567Z,65.66
2019-01-27T06:34:22.294Z,65.67
2019-01-27T06:36:53.504Z,65.68
2019-01-27T06:39:24.749Z,65.70
2019-01-27T06:41:56.084Z,65.73
2019-01-27T06:44:27.228Z,65.74
2019-01-27T06:46:58.575Z,65.77
2019-01-27T06:49:29.709Z,65.77
2019-01-27T06:52:00.965Z,65.79
2019-01-27T06:54:32.182Z,65.81
2019-01-27T06:57:03.424Z,65.80
2019-01-27T06:59:45.314Z,65.80
2019-01-27T07:02:29.497Z,65.81
2019-01-27T07:05:11.864Z,65.82
2019-01-27T07:07:56.017Z,65.85
2019-01-27T07:10:41.548Z,65.83
2019-01-27T07:13:26.183Z,65.87
2019-01-27T07:16:19.151Z,65.87
2019-01-27T07:19:08.187Z,65.89
2019-01-27T07:21:57.560Z,65.88
2019-01-27T07:24:46.478Z,65.90
2019-01-27T07:27:48.970Z,65.90
2019-01-27T07:30:31.285Z,65.89
2019-01-27T07:33:20.341Z,65.87
2019-01-27T07:36:10.172Z,65.85
2019-01-27T07:39:06.569Z,65.84
2019-01-27T07:41:49.594Z,65.86
2019-01-27T07:44:29.238Z,65.85
2019-01-27T07:47:28.836Z,65.84
2019-01-27T07:50:27.932Z,65.88
2019-01-27T07:53:27.431Z,65.86
2019-01-27T07:56:23.423Z,65.88
2019-01-27T07:59:10.148Z,65.87
2019-01-27T08:01:49.125Z,65.86
2019-01-27T08:04:29.684Z,65.82
2019-01-27T08:07:14.234Z,65.82
2019-01-27T08:10:03.183Z,65.86
2019-01-27T08:12:53.374Z,65.88
2019-01-27T08:15:43.791Z,65.88
2019-01-27T08:18:26.687Z,65.90
2019-01-27T08:21:07.178Z,65.87
2019-01-27T08:24:12.488Z,65.91
2019-01-27T08:27:04.387Z,65.87
2019-01-27T08:29:54.543Z,65.90
2019-01-27T08:33:00.033Z,65.91
2019-01-27T08:35:41.256Z,65.91
2019-01-27T08:38:24.781Z,65.90
2019-01-27T08:41:24.303Z,65.90
2019-01-27T08:44:20.352Z,65.93
2019-01-27T08:46:55.115Z,65.93
2019-01-27T08:49:26.391Z,65.94
2019-01-27T08:51:57.853Z,65.93
2019-01-27T08:54:29.052Z,65.92
2019-01-27T08:57:00.427Z,65.94
2019-01-27T08:59:31.690Z,65.94
2019-01-27T09:02:30.955Z,65.96
2019-01-27T09:05:27.157Z,65.97
2019-01-27T09:08:23.455Z,65.98
2019-01-27T09:11:16.564Z,65.96
2019-01-27T09:13:53.434Z,65.94
2019-01-27T09:16:36.969Z,65.91
2019-01-27T09:19:30.067Z,65.89
2019-01-27T09:22:20.195Z,65.86
2019-01-27T09:25:19.519Z,65.87
2019-01-27T09:28:09.847Z,65.84
2019-01-27T09:31:03.168Z,65.79
2019-01-27T09:33:49.815Z,65.80
2019-01-27T09:36:40.945Z,65.76
2019-01-27T09:39:37.596Z,65.67
2019-01-27T09:42:40.107Z,65.65
2019-01-27T09:45:31.737Z,65.64
2019-01-27T09:48:19.028Z,65.59
2019-01-27T09:51:27.926Z,65.61
2019-01-27T09:54:13.806Z,65.64
2019-01-27T09:57:06.751Z,65.55
2019-01-27T09:59:46.836Z,65.59
2019-01-27T10:02:23.323Z,65.59
2019-01-27T10:05:11.444Z,65.63
2019-01-27T10:07:50.299Z,65.67
2019-01-27T10:10:40.810Z,65.48
2019-01-27T10:13:27.642Z,65.35
2019-01-27T10:16:20.540Z,65.37
2019-01-27T10:19:25.793Z,65.31
2019-01-27T10:22:14.552Z,65.20
2019-01-27T10:25:03.032Z,65.22
2019-01-27T10:27:51.069Z,65.13
2019-01-27T10:30:54.219Z,65.02
2019-01-27T10:33:47.508Z,64.97
2019-01-27T10:36:27.439Z,64.94
2019-01-27T10:39:09.348Z,64.86
2019-01-27T10:41:45.703Z,64.83
2019-01-27T10:44:27.825Z,64.78
2019-01-27T10:47:18.083Z,64.70
2019-01-27T10:50:01.902Z,64.58
2019-01-27T10:53:01.316Z,64.58
2019-01-27T10:55:54.672Z,64.43
2019-01-27T10:58:45.437Z,64.35
2019-01-27T11:01:27.787Z,64.40
2019-01-27T11:04:17.090Z,64.39
2019-01-27T11:07:07.331Z,64.39
2019-01-27T11:10:13.002Z,64.34
2019-01-27T11:13:08.997Z,64.25
2019-01-27T11:15:48.196Z,64.26
2019-01-27T11:18:41.485Z,64.17
2019-01-27T11:21:37.681Z,64.18
2019-01-27T11:24:26.579Z,64.20
2019-01-27T11:27:35.010Z,64.20
2019-01-27T11:30:30.285Z,64.01
2019-01-27T11:33:20.485Z,63.85
2019-01-27T11:36:09.417Z,63.80
2019-01-27T11:38:58.309Z,63.57
2019-01-27T11:41:48.521Z,63.38
2019-01-27T11:44:38.785Z,63.42
2019-01-27T11:47:32.024Z,63.33
2019-01-27T11:50:10.223Z,63.42
2019-01-27T11:52:45.293Z,63.55
2019-01-27T11:55:16.512Z,63.59
2019-01-27T11:57:47.773Z,63.56
2019-01-27T12:00:22.801Z,63.33
2019-01-27T12:02:54.111Z,63.21
2019-01-27T12:05:25.369Z,63.06
2019-01-27T12:07:56.671Z,62.93
2019-01-27T12:10:27.883Z,62.80
2019-01-27T12:12:59.192Z,62.87
2019-01-27T12:15:31.838Z,62.88
2019-01-27T12:18:03.230Z,62.88
2019-01-27T12:20:34.548Z,62.81
2019-01-27T12:23:05.796Z,62.73
2019-01-27T12:25:36.980Z,62.67
2019-01-27T12:28:08.385Z,62.64
2019-01-27T12:30:39.616Z,62.59
2019-01-27T12:33:10.903Z,62.40
2019-01-27T12:35:42.092Z,62.38
2019-01-27T12:38:13.501Z,62.31
2019-01-27T12:40:44.841Z,62.37
2019-01-27T12:43:16.218Z,62.43
2019-01-27T12:45:47.589Z,62.01
2019-01-27T12:48:18.888Z,61.84
2019-01-27T12:50:50.266Z,61.89
2019-01-27T12:53:21.578Z,61.88
2019-01-27T12:55:52.881Z,62.01
2019-01-27T12:58:24.104Z,62.07
2019-01-27T13:01:05.128Z,62.26
2019-01-27T13:03:36.370Z,62.24
2019-01-27T13:06:08.695Z,62.21
2019-01-27T13:08:40.169Z,62.24
2019-01-27T13:11:11.397Z,62.24
2019-01-27T13:13:42.580Z,62.20
2019-01-27T13:16:13.795Z,62.16
2019-01-27T13:18:45.054Z,62.24
2019-01-27T13:21:16.290Z,62.18
2019-01-27T13:23:47.547Z,62.13
2019-01-27T13:26:18.812Z,62.17
2019-01-27T13:28:50.141Z,62.09
2019-01-27T13:31:21.586Z,62.12
2019-01-27T13:33:52.783Z,62.19
2019-01-27T13:36:24.093Z,62.18
2019-01-27T13:38:55.443Z,62.12
2019-01-27T13:41:26.858Z,62.01
2019-01-27T13:43:58.289Z,62.02
2019-01-27T13:46:29.626Z,62.02
2019-01-27T13:49:01.138Z,62.03
2019-01-27T13:51:32.450Z,61.89
2019-01-27T13:54:03.833Z,61.90
2019-01-27T13:56:34.984Z,61.83
2019-01-27T13:59:06.462Z,61.98
2019-01-27T14:01:37.741Z,61.97
2019-01-27T14:04:09.057Z,61.88
2019-01-27T14:06:40.299Z,61.85
2019-01-27T14:09:11.759Z,61.90
2019-01-27T14:11:43.151Z,61.84
2019-01-27T14:14:15.107Z,61.87
2019-01-27T14:16:46.582Z,61.72
2019-01-27T14:19:18.143Z,61.70
2019-01-27T14:21:51.001Z,61.76
2019-01-27T14:24:22.639Z,61.66
2019-01-27T14:26:54.351Z,61.73
2019-01-27T14:29:25.665Z,61.64
2019-01-27T14:31:56.938Z,61.70
2019-01-27T14:34:28.185Z,61.70
2019-01-27T14:36:59.489Z,61.76
2019-01-27T14:39:30.828Z,61.82
2019-01-27T14:42:02.181Z,61.79
2019-01-27T14:44:33.651Z,62.00
2019-01-27T14:47:05.046Z,62.04
2019-01-27T14:49:36.278Z,61.95
2019-01-27T14:52:07.491Z,61.93
2019-01-27T14:54:38.699Z,61.90
2019-01-27T14:57:09.967Z,61.82
2019-01-27T14:59:41.309Z,61.82
2019-01-27T15:02:12.822Z,61.75
2019-01-27T15:04:45.006Z,61.76
2019-01-27T15:07:16.606Z,61.74
2019-01-27T15:09:48.238Z,61.71
2019-01-27T15:12:21.633Z,61.67
2019-01-27T15:14:53.048Z,61.64
2019-01-27T15:17:24.443Z,61.66
2019-01-27T15:19:55.784Z,61.63
2019-01-27T15:22:27.042Z,61.60
2019-01-27T15:24:58.316Z,61.51
2019-01-27T15:27:29.463Z,61.52
2019-01-27T15:30:00.832Z,61.57
2019-01-27T15:32:33.372Z,61.47
2019-01-27T15:35:04.943Z,61.63
2019-01-27T15:37:36.276Z,61.72
2019-01-27T15:40:08.189Z,61.78
2019-01-27T15:42:39.527Z,61.77
2019-01-27T15:45:13.645Z,61.73
2019-01-27T15:47:45.977Z,61.68
2019-01-27T15:50:19.256Z,61.69
2019-01-27T15:52:50.484Z,61.66
2019-01-27T15:55:21.710Z,61.68
2019-01-27T15:57:52.943Z,61.71
2019-01-27T16:00:26.005Z,61.74
2019-01-27T16:02:57.814Z,61.74
2019-01-27T16:05:29.374Z,61.76
2019-01-27T16:08:00.676Z,61.79
2019-01-27T16:10:32.162Z,61.84
2019-01-27T16:13:03.463Z,61.85
2019-01-27T16:15:35.046Z,61.86
2019-01-27T16:18:07.107Z,61.88
2019-01-27T16:20:39.271Z,61.91
2019-01-27T16:23:29.594Z,61.95
2019-01-27T16:26:01.980Z,61.99
2019-01-27T16:28:33.296Z,62.02
2019-01-27T16:31:23.482Z,62.00
2019-01-27T16:34:02.139Z,62.02
2019-01-27T16:36:33.518Z,62.04
2019-01-27T16:39:08.825Z,62.05
2019-01-27T16:41:42.876Z,62.09
2019-01-27T16:44:14.198Z,62.10
2019-01-27T16:46:45.514Z,62.13
2019-01-27T16:49:16.764Z,62.16
2019-01-27T16:51:49.218Z,62.17
2019-01-27T16:54:20.929Z,62.18
2019-01-27T16:56:52.798Z,62.21
2019-01-27T16:59:24.411Z,62.22
2019-01-27T17:01:59.073Z,62.23
2019-01-27T17:04:29.193Z,62.25
2019-01-27T17:07:00.543Z,62.27
2019-01-27T17:09:32.122Z,62.26
2019-01-27T17:12:03.395Z,62.32
2019-01-27T17:14:34.792Z,62.35
2019-01-27T17:17:05.943Z,62.36
2019-01-27T17:19:37.346Z,62.38
2019-01-27T17:22:08.765Z,62.43
2019-01-27T17:24:40.082Z,62.44
2019-01-27T17:27:11.617Z,62.53
2019-01-27T17:29:42.992Z,62.58
2019-01-27T17:32:14.553Z,62.65
2019-01-27T17:34:48.749Z,62.78
2019-01-27T17:37:20.193Z,62.82
2019-01-27T17:39:51.899Z,62.87
2019-01-27T17:42:23.526Z,62.92
2019-01-27T17:44:57.656Z,62.95
2019-01-27T17:47:29.077Z,62.98
2019-01-27T17:50:01.129Z,62.99
2019-01-27T17:52:33.748Z,63.03
2019-01-27T17:55:07.513Z,63.11
2019-01-27T17:58:00.507Z,63.15
2019-01-27T18:00:49.862Z,63.19
2019-01-27T18:03:49.571Z,63.22
2019-01-27T18:06:29.333Z,63.23
2019-01-27T18:09:31.770Z,63.26
2019-01-27T18:12:09.598Z,63.30
2019-01-27T18:14:42.112Z,63.34
2019-01-27T18:17:13.447Z,63.37
2019-01-27T18:19:45.192Z,63.38
2019-01-27T18:22:16.518Z,63.41
2019-01-27T18:24:47.847Z,63.42
2019-01-27T18:27:19.060Z,63.44
2019-01-27T18:29:50.376Z,63.46
2019-01-27T18:32:21.762Z,63.45
2019-01-27T18:34:52.999Z,63.47
2019-01-27T18:37:24.315Z,63.47
2019-01-27T18:39:55.518Z,63.45
2019-01-27T18:42:27.173Z,63.47
2019-01-27T18:44:58.485Z,63.48
2019-01-27T18:47:29.990Z,63.53
2019-01-27T18:50:06.322Z,63.53
2019-01-27T18:52:38.928Z,63.54
2019-01-27T18:55:25.301Z,63.60
2019-01-27T18:58:05.093Z,63.61
2019-01-27T19:01:10.724Z,63.61
2019-01-27T19:03:54.023Z,63.61
2019-01-27T19:06:59.505Z,63.63
2019-01-27T19:09:43.921Z,63.63
2019-01-27T19:12:37.225Z,63.67
2019-01-27T19:15:47.881Z,63.70
2019-01-27T19:18:47.863Z,63.75
2019-01-27T19:21:30.272Z,63.77
2019-01-27T19:24:12.289Z,63.79
2019-01-27T19:27:12.034Z,63.79
2019-01-27T19:30:05.860Z,63.82
2019-01-27T19:32:56.563Z,63.83
2019-01-27T19:35:59.046Z,63.85
2019-01-27T19:38:52.460Z,63.84
2019-01-27T19:41:41.403Z,63.89
2019-01-27T19:44:30.714Z,63.92
2019-01-27T19:47:10.378Z,63.92
2019-01-27T19:50:01.703Z,63.89
2019-01-27T19:52:40.893Z,63.91
2019-01-27T19:55:25.294Z,63.91
2019-01-27T19:58:23.517Z,63.94
2019-01-27T20:01:20.964Z,63.95
2019-01-27T20:03:59.226Z,63.97
2019-01-27T20:06:53.692Z,63.96
2019-01-27T20:09:42.318Z,63.96
2019-01-27T20:12:31.172Z,64.01
2019-01-27T20:15:08.583Z,64.00
2019-01-27T20:17:50.623Z,64.02
2019-01-27T20:20:46.836Z,64.02
2019-01-27T20:23:23.062Z,64.04
2019-01-27T20:26:28.736Z,64.05
2019-01-27T20:29:08.428Z,64.08
2019-01-27T20:31:57.683Z,64.17
2019-01-27T20:34:47.916Z,64.15
2019-01-27T20:37:43.597Z,64.19
2019-01-27T20:40:33.438Z,64.20
2019-01-27T20:43:31.075Z,64.21
2019-01-27T20:46:17.685Z,64.23
2019-01-27T20:49:14.361Z,64.22
2019-01-27T20:52:13.449Z,64.25
2019-01-27T20:55:02.454Z,64.29
2019-01-27T20:57:51.153Z,64.32
2019-01-27T21:00:40.977Z,64.35
2019-01-27T21:03:40.082Z,64.39
2019-01-27T21:06:33.364Z,64.41
2019-01-27T21:09:20.691Z,64.42
2019-01-27T21:12:08.188Z,64.45
2019-01-27T21:14:53.143Z,64.45
2019-01-27T21:17:42.024Z,64.46
2019-01-27T21:20:19.253Z,64.45
2019-01-27T21:22:55.599Z,64.43
2019-01-27T21:25:26.799Z,64.45
2019-01-27T21:27:58.193Z,64.44
2019-01-27T21:30:29.473Z,64.46
2019-01-27T21:33:00.898Z,64.46
2019-01-27T21:35:32.140Z,64.47
2019-01-27T21:38:03.390Z,64.46
2019-01-27T21:40:34.767Z,64.48
2019-01-27T21:43:06.441Z,64.46
2019-01-27T21:45:37.836Z,64.48
2019-01-27T21:48:09.162Z,64.47
2019-01-27T21:50:41.638Z,64.44
2019-01-27T21:53:12.804Z,64.44
2019-01-27T21:55:44.244Z,64.42
2019-01-27T21:58:16.037Z,64.43
2019-01-27T22:00:47.455Z,64.43
2019-01-27T22:03:18.662Z,64.42
2019-01-27T22:05:50.011Z,64.40
2019-01-27T22:08:21.542Z,64.41
2019-01-27T22:10:52.734Z,64.39
2019-01-27T22:13:24.618Z,64.41
2019-01-27T22:15:55.992Z,64.42
2019-01-27T22:18:27.397Z,64.43
2019-01-27T22:20:58.965Z,64.45
2019-01-27T22:23:31.532Z,64.42
2019-01-27T22:26:03.273Z,64.43
2019-01-27T22:28:34.772Z,64.42
2019-01-27T22:31:05.991Z,64.42
2019-01-27T22:33:37.427Z,64.44
2019-01-27T22:36:08.871Z,64.54
2019-01-27T22:38:40.221Z,64.62
2019-01-27T22:41:11.597Z,64.75
2019-01-27T22:43:43.204Z,64.90
2019-01-27T22:46:15.691Z,65.07
2019-01-27T22:48:46.954Z,65.37
2019-01-27T22:51:18.223Z,65.50
2019-01-27T22:53:49.434Z,65.71
2019-01-27T22:56:20.733Z,65.89
2019-01-27T22:58:51.936Z,66.11
2019-01-27T23:01:23.106Z,66.12
2019-01-27T23:03:55.608Z,66.33
2019-01-27T23:06:26.907Z,66.47
2019-01-27T23:08:58.067Z,66.31
2019-01-27T23:11:29.413Z,66.63
2019-01-27T23:14:00.570Z,66.67
2019-01-27T23:16:31.770Z,66.45
2019-01-27T23:19:03.013Z,66.36
2019-01-27T23:21:34.292Z,66.36
2019-01-27T23:24:05.558Z,66.21
2019-01-27T23:26:36.924Z,66.07
2019-01-27T23:29:08.242Z,66.16
2019-01-27T23:31:39.454Z,66.05
2019-01-27T23:34:10.688Z,66.00
2019-01-27T23:36:42.017Z,66.03
2019-01-27T23:39:13.174Z,65.88
2019-01-27T23:41:44.401Z,65.88
2019-01-27T23:44:15.617Z,65.78
2019-01-27T23:46:46.973Z,65.76
2019-01-27T23:49:18.287Z,65.67
2019-01-27T23:51:49.495Z,65.65
2019-01-27T23:54:20.717Z,65.62
2019-01-27T23:56:51.916Z,65.57
2019-01-27T23:59:23.107Z,65.59
